createdAt,value
2017-08-12T00:00:21.282Z,3.20
2017-08-12T00:02:54.921Z,3.50
2017-08-12T00:05:28.441Z,3.43
2017-08-12T00:08:01.877Z,3.17
2017-08-12T00:10:35.353Z,3.53
2017-08-12T00:13:08.863Z,3.10
2017-08-12T00:15:42.396Z,3.57
2017-08-12T00:18:15.844Z,3.77
2017-08-12T00:20:49.328Z,4.00
2017-08-12T00:23:22.745Z,4.20
2017-08-12T00:25:56.395Z,3.83
2017-08-12T00:28:29.902Z,3.87
2017-08-12T00:31:03.559Z,5.20
2017-08-12T00:33:37.058Z,3.83
2017-08-12T00:36:10.742Z,5.07
2017-08-12T00:38:44.278Z,8.70
2017-08-12T00:41:17.789Z,10.53
2017-08-12T00:43:51.383Z,10.63
2017-08-12T00:46:24.818Z,4.63
2017-08-12T00:48:58.477Z,10.17
2017-08-12T00:51:32.107Z,5.53
2017-08-12T00:54:05.613Z,4.80
2017-08-12T00:56:39.256Z,3.77
2017-08-12T00:59:12.702Z,3.50
2017-08-12T01:01:46.221Z,3.10
2017-08-12T01:04:19.649Z,3.17
2017-08-12T01:06:53.303Z,3.70
2017-08-12T01:09:26.938Z,3.20
2017-08-12T01:12:00.610Z,3.57
2017-08-12T01:14:34.041Z,3.87
2017-08-12T01:17:07.565Z,3.53
2017-08-12T01:19:41.154Z,4.10
2017-08-12T01:22:14.764Z,4.73
2017-08-12T01:24:48.213Z,3.50
2017-08-12T01:27:21.731Z,3.30
2017-08-12T01:29:55.270Z,4.17
2017-08-12T01:32:28.926Z,3.70
2017-08-12T01:35:02.479Z,3.50
2017-08-12T01:37:36.131Z,3.70
2017-08-12T01:40:09.712Z,3.77
2017-08-12T01:42:43.315Z,3.80
2017-08-12T01:45:16.917Z,3.77
2017-08-12T01:47:50.439Z,3.23
2017-08-12T01:50:23.951Z,2.97
2017-08-12T01:52:57.390Z,3.20
2017-08-12T01:55:30.830Z,3.33
2017-08-12T01:58:04.499Z,3.23
2017-08-12T02:00:37.943Z,2.87
2017-08-12T02:03:11.453Z,3.47
2017-08-12T02:05:44.895Z,3.57
2017-08-12T02:08:18.340Z,3.27
2017-08-12T02:10:51.975Z,3.50
2017-08-12T02:13:25.494Z,3.03
2017-08-12T02:15:59.001Z,3.03
2017-08-12T02:18:32.566Z,3.10
2017-08-12T02:21:06.016Z,3.33
2017-08-12T02:23:39.467Z,3.23
2017-08-12T02:26:13.047Z,3.80
2017-08-12T02:28:46.581Z,3.50
2017-08-12T02:31:20.098Z,3.90
2017-08-12T02:33:53.830Z,3.57
2017-08-12T02:36:27.640Z,3.77
2017-08-12T02:39:02.491Z,3.40
2017-08-12T02:41:36.981Z,3.70
2017-08-12T02:44:10.447Z,4.33
2017-08-12T02:46:45.010Z,4.47
2017-08-12T02:49:18.805Z,4.50
2017-08-12T02:51:53.135Z,4.50
2017-08-12T02:54:26.602Z,4.67
2017-08-12T02:57:00.319Z,4.00
2017-08-12T02:59:33.927Z,4.97
2017-08-12T03:02:07.729Z,5.23
2017-08-12T03:04:42.149Z,4.57
2017-08-12T03:07:15.679Z,4.67
2017-08-12T03:09:49.345Z,4.20
2017-08-12T03:12:22.941Z,4.17
2017-08-12T03:14:56.558Z,4.20
2017-08-12T03:17:30.162Z,4.50
2017-08-12T03:20:04.172Z,4.50
2017-08-12T03:22:38.691Z,4.30
2017-08-12T03:25:12.289Z,4.27
2017-08-12T03:27:46.090Z,5.07
2017-08-12T03:30:20.479Z,4.13
2017-08-12T03:32:54.833Z,4.43
2017-08-12T03:35:29.330Z,4.33
2017-08-12T03:38:03.055Z,4.00
2017-08-12T03:40:36.654Z,4.00
2017-08-12T03:43:10.569Z,4.07
2017-08-12T03:45:44.171Z,3.70
2017-08-12T03:48:17.759Z,3.70
2017-08-12T03:50:51.273Z,3.40
2017-08-12T03:53:25.693Z,4.00
2017-08-12T03:55:59.251Z,3.63
2017-08-12T03:58:32.985Z,3.80
2017-08-12T04:01:06.730Z,3.47
2017-08-12T04:03:40.598Z,3.63
2017-08-12T04:06:14.253Z,4.37
2017-08-12T04:08:47.901Z,3.30
2017-08-12T04:11:21.493Z,3.70
2017-08-12T04:13:55.097Z,3.50
2017-08-12T04:16:29.316Z,3.93
2017-08-12T04:19:03.259Z,3.70
2017-08-12T04:21:37.029Z,3.50
2017-08-12T04:24:11.417Z,3.20
2017-08-12T04:26:46.888Z,3.23
2017-08-12T04:29:20.693Z,3.27
2017-08-12T04:31:54.397Z,3.67
2017-08-12T04:34:28.935Z,2.87
2017-08-12T04:37:02.726Z,3.80
2017-08-12T04:39:36.301Z,3.43
2017-08-12T04:42:10.038Z,3.90
2017-08-12T04:44:43.739Z,3.10
2017-08-12T04:47:17.225Z,3.43
2017-08-12T04:49:51.707Z,3.80
2017-08-12T04:52:25.346Z,3.70
2017-08-12T04:54:58.967Z,3.57
2017-08-12T04:57:32.671Z,3.70
2017-08-12T05:00:06.377Z,3.90
2017-08-12T05:02:39.972Z,3.77
2017-08-12T05:05:13.458Z,3.70
2017-08-12T05:07:47.071Z,3.43
2017-08-12T05:10:21.565Z,4.17
2017-08-12T05:12:55.176Z,4.30
2017-08-12T05:15:28.730Z,3.97
2017-08-12T05:18:03.222Z,3.60
2017-08-12T05:20:37.066Z,4.43
2017-08-12T05:23:10.721Z,4.53
2017-08-12T05:25:44.314Z,5.67
2017-08-12T05:28:17.816Z,5.90
2017-08-12T05:30:51.424Z,6.07
2017-08-12T05:33:25.023Z,6.83
2017-08-12T05:35:58.722Z,6.30
2017-08-12T05:38:32.308Z,6.53
2017-08-12T05:41:05.918Z,5.83
2017-08-12T05:43:40.325Z,5.97
2017-08-12T05:46:14.040Z,5.87
2017-08-12T05:48:47.633Z,6.43
2017-08-12T05:51:21.095Z,6.13
2017-08-12T05:53:55.454Z,6.47
2017-08-12T05:56:29.979Z,7.13
2017-08-12T05:59:03.777Z,6.90
2017-08-12T06:01:38.887Z,7.03
2017-08-12T06:04:12.613Z,7.23
2017-08-12T06:06:46.481Z,7.27
2017-08-12T06:09:20.101Z,7.67
2017-08-12T06:11:54.349Z,7.00
2017-08-12T06:14:28.051Z,6.93
2017-08-12T06:17:01.646Z,6.70
2017-08-12T06:19:36.166Z,7.23
2017-08-12T06:22:09.601Z,7.37
2017-08-12T06:24:43.287Z,7.27
2017-08-12T06:27:17.958Z,6.37
2017-08-12T06:29:51.655Z,7.87
2017-08-12T06:32:26.279Z,7.10
2017-08-12T06:34:59.927Z,6.90
2017-08-12T06:37:33.522Z,7.03
2017-08-12T06:40:08.344Z,6.80
2017-08-12T06:42:42.060Z,6.80
2017-08-12T06:45:15.858Z,6.53
2017-08-12T06:47:49.665Z,8.17
2017-08-12T06:50:23.289Z,7.67
2017-08-12T06:52:56.869Z,8.80
2017-08-12T06:55:30.473Z,7.53
2017-08-12T06:58:04.166Z,8.13
2017-08-12T07:00:37.797Z,8.33
2017-08-12T07:03:12.250Z,8.93
2017-08-12T07:05:45.869Z,8.77
2017-08-12T07:08:19.611Z,8.67
2017-08-12T07:10:54.027Z,8.37
2017-08-12T07:13:27.462Z,9.07
2017-08-12T07:16:01.226Z,8.60
2017-08-12T07:18:36.462Z,8.53
2017-08-12T07:21:10.265Z,10.33
2017-08-12T07:23:43.722Z,9.13
2017-08-12T07:26:18.282Z,8.07
2017-08-12T07:28:51.785Z,8.40
2017-08-12T07:31:25.278Z,9.20
2017-08-12T07:33:58.985Z,8.27
2017-08-12T07:36:32.573Z,8.70
2017-08-12T07:39:06.178Z,8.50
2017-08-12T07:41:39.782Z,9.13
2017-08-12T07:44:13.290Z,6.67
2017-08-12T07:46:46.926Z,7.47
2017-08-12T07:49:20.577Z,7.63
2017-08-12T07:51:54.144Z,6.60
2017-08-12T07:54:27.781Z,4.50
2017-08-12T07:57:01.282Z,4.10
2017-08-12T07:59:34.882Z,3.50
2017-08-12T08:02:08.582Z,3.20
2017-08-12T08:04:42.182Z,3.30
2017-08-12T08:07:15.891Z,3.50
2017-08-12T08:09:49.553Z,3.00
2017-08-12T08:12:23.165Z,3.40
2017-08-12T08:14:56.885Z,4.00
2017-08-12T08:17:30.589Z,3.80
2017-08-12T08:20:04.197Z,3.20
2017-08-12T08:22:38.429Z,3.13
2017-08-12T08:25:12.218Z,2.60
2017-08-12T08:27:46.742Z,3.10
2017-08-12T08:30:20.346Z,3.00
2017-08-12T08:32:53.842Z,2.80
2017-08-12T08:35:27.416Z,3.23
2017-08-12T08:38:01.886Z,2.70
2017-08-12T08:40:35.461Z,2.83
2017-08-12T08:43:09.398Z,2.63
2017-08-12T08:45:42.967Z,3.30
2017-08-12T08:48:16.574Z,2.67
2017-08-12T08:50:52.238Z,2.50
2017-08-12T08:53:26.035Z,3.07
2017-08-12T08:56:00.350Z,3.07
2017-08-12T08:58:33.941Z,2.87
2017-08-12T09:01:07.654Z,3.10
2017-08-12T09:03:41.353Z,2.30
2017-08-12T09:06:14.857Z,2.67
2017-08-12T09:08:49.157Z,2.70
2017-08-12T09:11:22.770Z,2.50
2017-08-12T09:13:56.467Z,2.73
2017-08-12T09:16:29.974Z,3.00
2017-08-12T09:19:03.671Z,3.00
2017-08-12T09:21:37.218Z,3.17
2017-08-12T09:24:10.871Z,2.60
2017-08-12T09:26:44.461Z,2.80
2017-08-12T09:29:18.071Z,2.80
2017-08-12T09:31:53.207Z,2.97
2017-08-12T09:34:26.912Z,2.70
2017-08-12T09:37:00.501Z,2.60
2017-08-12T09:39:34.113Z,2.70
2017-08-12T09:42:08.426Z,2.93
2017-08-12T09:44:42.742Z,2.57
2017-08-12T09:47:16.350Z,2.43
2017-08-12T09:49:50.154Z,2.93
2017-08-12T09:52:24.574Z,2.70
2017-08-12T09:54:59.813Z,2.50
2017-08-12T09:57:34.226Z,2.90
2017-08-12T10:00:08.743Z,2.57
2017-08-12T10:02:42.350Z,3.10
2017-08-12T10:05:15.945Z,2.27
2017-08-12T10:07:49.501Z,2.60
2017-08-12T10:10:23.364Z,2.50
2017-08-12T10:12:56.954Z,2.90
2017-08-12T10:15:31.367Z,2.37
2017-08-12T10:18:05.186Z,2.60
2017-08-12T10:20:38.889Z,2.63
2017-08-12T10:23:12.474Z,2.80
2017-08-12T10:25:46.291Z,2.80
2017-08-12T10:28:19.871Z,2.50
2017-08-12T10:30:53.747Z,2.70
2017-08-12T10:33:28.799Z,3.17
2017-08-12T10:36:02.510Z,3.40
2017-08-12T10:38:36.208Z,2.40
2017-08-12T10:41:09.839Z,2.60
2017-08-12T10:43:43.329Z,3.30
2017-08-12T10:46:17.148Z,3.13
2017-08-12T10:48:50.857Z,2.93
2017-08-12T10:51:24.452Z,2.80
2017-08-12T10:53:58.753Z,2.67
2017-08-12T10:56:32.986Z,2.70
2017-08-12T10:59:06.535Z,2.30
2017-08-12T11:01:40.278Z,2.20
2017-08-12T11:04:14.545Z,1.93
2017-08-12T11:06:49.571Z,2.60
2017-08-12T11:09:23.136Z,2.10
2017-08-12T11:11:56.752Z,1.90
2017-08-12T11:14:34.560Z,3.63
2017-08-12T11:17:08.344Z,3.00
2017-08-12T11:19:42.133Z,2.90
2017-08-12T11:22:15.836Z,2.90
2017-08-12T11:24:49.433Z,2.87
2017-08-12T11:27:23.261Z,2.37
2017-08-12T11:29:56.959Z,2.40
2017-08-12T11:32:30.546Z,2.90
2017-08-12T11:35:06.284Z,2.43
2017-08-12T11:37:41.334Z,2.30
2017-08-12T11:40:15.632Z,2.83
2017-08-12T11:42:49.555Z,2.77
2017-08-12T11:45:23.270Z,3.00
2017-08-12T11:47:56.966Z,2.63
2017-08-12T11:50:31.283Z,3.10
2017-08-12T11:53:05.602Z,2.53
2017-08-12T11:55:39.175Z,2.93
2017-08-12T11:58:13.417Z,2.47
2017-08-12T12:03:20.783Z,2.70
2017-08-12T12:05:55.242Z,2.63
2017-08-12T12:08:28.839Z,2.30
2017-08-12T12:11:02.502Z,2.60
2017-08-12T12:13:36.659Z,2.80
2017-08-12T12:16:10.559Z,2.57
2017-08-12T12:18:45.041Z,2.70
2017-08-12T12:21:18.545Z,2.87
2017-08-12T12:23:52.181Z,2.70
2017-08-12T12:26:26.713Z,2.57
2017-08-12T12:29:00.401Z,2.23
2017-08-12T12:31:34.328Z,2.43
2017-08-12T12:34:07.979Z,1.90
2017-08-12T12:36:41.837Z,2.60
2017-08-12T12:39:15.543Z,2.10
2017-08-12T12:41:50.068Z,2.10
2017-08-12T12:44:23.654Z,2.00
2017-08-12T12:46:57.150Z,2.10
2017-08-12T12:49:30.853Z,1.30
2017-08-12T12:52:04.445Z,2.00
2017-08-12T12:54:39.487Z,1.90
2017-08-12T12:57:13.089Z,1.90
2017-08-12T12:59:46.698Z,1.80
2017-08-12T13:02:21.002Z,2.00
2017-08-12T13:04:55.977Z,1.70
2017-08-12T13:07:31.033Z,1.80
2017-08-12T13:10:04.660Z,1.87
2017-08-12T13:12:38.236Z,2.27
2017-08-12T13:15:11.970Z,2.90
2017-08-12T13:17:46.411Z,1.70
2017-08-12T13:20:19.993Z,2.77
2017-08-12T13:22:53.606Z,2.37
2017-08-12T13:25:27.202Z,1.73
2017-08-12T13:28:00.961Z,1.90
2017-08-12T13:30:34.573Z,1.80
2017-08-12T13:33:08.314Z,2.00
2017-08-12T13:35:41.803Z,3.13
2017-08-12T13:38:15.347Z,2.17
2017-08-12T13:40:49.737Z,2.17
2017-08-12T13:43:23.338Z,2.07
2017-08-12T13:45:57.642Z,1.90
2017-08-12T13:48:31.266Z,2.30
2017-08-12T13:51:05.759Z,2.00
2017-08-12T13:53:39.878Z,1.60
2017-08-12T13:56:14.614Z,1.70
2017-08-12T13:58:48.409Z,2.00
2017-08-12T14:01:22.005Z,2.13
2017-08-12T14:03:56.942Z,1.67
2017-08-12T14:06:35.078Z,1.80
2017-08-12T14:09:09.113Z,2.60
2017-08-12T14:11:42.905Z,2.40
2017-08-12T14:14:17.239Z,2.03
2017-08-12T14:16:50.782Z,2.37
2017-08-12T14:19:24.284Z,2.50
2017-08-12T14:21:57.976Z,2.07
2017-08-12T14:24:31.798Z,2.07
2017-08-12T14:27:05.481Z,2.23
2017-08-12T14:29:39.037Z,2.63
2017-08-12T14:32:12.586Z,2.47
2017-08-12T14:34:46.196Z,2.20
2017-08-12T14:37:19.790Z,3.10
2017-08-12T14:39:53.501Z,2.77
2017-08-12T14:42:27.062Z,3.10
2017-08-12T14:45:00.700Z,2.87
2017-08-12T14:47:34.306Z,3.00
2017-08-12T14:50:07.752Z,3.20
2017-08-12T14:52:41.359Z,3.97
2017-08-12T14:55:14.890Z,4.20
2017-08-12T14:57:48.459Z,3.63
2017-08-12T15:00:22.097Z,3.40
2017-08-12T15:02:55.560Z,3.37
2017-08-12T15:05:29.290Z,3.53
2017-08-12T15:08:03.613Z,3.43
2017-08-12T15:10:37.214Z,3.40
2017-08-12T15:13:10.815Z,2.80
2017-08-12T15:15:45.166Z,2.67
2017-08-12T15:18:18.923Z,2.70
2017-08-12T15:20:52.490Z,2.77
2017-08-12T15:23:26.129Z,2.10
2017-08-12T15:25:59.726Z,2.57
2017-08-12T15:28:33.345Z,2.57
2017-08-12T15:31:07.094Z,2.47
2017-08-12T15:33:40.738Z,2.20
2017-08-12T15:36:14.238Z,2.33
2017-08-12T15:38:47.817Z,2.27
2017-08-12T15:41:21.541Z,2.73
2017-08-12T15:43:55.142Z,2.90
2017-08-12T15:46:28.752Z,2.70
2017-08-12T15:49:02.349Z,2.80
2017-08-12T15:51:35.958Z,2.47
2017-08-12T15:54:09.621Z,2.93
2017-08-12T15:56:43.241Z,3.10
2017-08-12T15:59:17.680Z,2.83
2017-08-12T16:01:51.476Z,3.20
2017-08-12T16:04:25.966Z,2.77
2017-08-12T16:06:59.497Z,2.77
2017-08-12T16:09:33.022Z,2.90
2017-08-12T16:12:06.809Z,2.70
2017-08-12T16:14:41.218Z,2.67
2017-08-12T16:17:15.021Z,2.60
2017-08-12T16:19:48.790Z,3.00
2017-08-12T16:22:22.626Z,2.63
2017-08-12T16:24:56.290Z,2.50
2017-08-12T16:27:30.247Z,3.53
2017-08-12T16:30:03.883Z,3.35
2017-08-12T16:32:37.546Z,3.40
2017-08-12T16:35:12.026Z,4.93
2017-08-12T16:37:45.674Z,3.30
2017-08-12T16:40:19.466Z,3.30
2017-08-12T16:42:53.169Z,3.70
2017-08-12T16:45:27.601Z,3.20
2017-08-12T16:48:01.865Z,2.90
2017-08-12T16:50:35.479Z,2.97
2017-08-12T16:53:08.958Z,3.40
2017-08-12T16:55:42.605Z,3.10
2017-08-12T16:58:16.302Z,2.80
2017-08-12T17:00:49.914Z,3.67
2017-08-12T17:03:23.714Z,3.07
2017-08-12T17:05:57.422Z,2.77
2017-08-12T17:08:31.033Z,2.37
2017-08-12T17:11:06.873Z,2.90
2017-08-12T17:13:40.577Z,2.60
2017-08-12T17:16:14.277Z,2.67
2017-08-12T17:18:47.991Z,2.70
2017-08-12T17:21:21.585Z,2.50
2017-08-12T17:23:55.186Z,3.10
2017-08-12T17:26:29.811Z,2.30
2017-08-12T17:29:03.413Z,2.80
2017-08-12T17:31:37.021Z,2.70
2017-08-12T17:34:11.997Z,2.70
2017-08-12T17:36:45.824Z,2.60
2017-08-12T17:39:19.457Z,2.50
2017-08-12T17:41:53.866Z,2.20
2017-08-12T17:44:27.481Z,2.90
2017-08-12T17:47:01.074Z,2.70
2017-08-12T17:49:34.537Z,3.40
2017-08-12T17:52:08.370Z,2.23
2017-08-12T17:54:41.970Z,2.30
2017-08-12T17:57:15.585Z,2.50
2017-08-12T17:59:49.078Z,2.30
2017-08-12T18:02:22.815Z,2.40
2017-08-12T18:04:56.489Z,2.33
2017-08-12T18:07:30.082Z,2.37
2017-08-12T18:10:03.787Z,2.97
2017-08-12T18:12:37.882Z,3.00
2017-08-12T18:15:11.400Z,2.93
2017-08-12T18:17:45.100Z,2.70
2017-08-12T18:20:18.693Z,2.70
2017-08-12T18:22:52.502Z,2.30
2017-08-12T18:25:27.052Z,3.30
2017-08-12T18:28:00.557Z,3.50
2017-08-12T18:30:34.630Z,3.57
2017-08-12T18:33:08.344Z,3.67
2017-08-12T18:35:42.042Z,3.50
2017-08-12T18:38:15.640Z,3.87
2017-08-12T18:40:49.205Z,3.30
2017-08-12T18:43:22.833Z,3.57
2017-08-12T18:45:56.654Z,3.60
2017-08-12T18:48:30.348Z,3.80
2017-08-12T18:51:03.957Z,3.60
2017-08-12T18:53:38.065Z,3.93
2017-08-12T18:56:12.486Z,3.73
2017-08-12T18:58:46.906Z,4.57
2017-08-12T19:01:22.042Z,3.67
2017-08-12T19:03:56.354Z,4.97
2017-08-12T19:06:30.151Z,4.90
2017-08-12T19:09:03.841Z,4.83
2017-08-12T19:11:37.479Z,5.47
2017-08-12T19:14:11.255Z,5.67
2017-08-12T19:16:44.878Z,6.40
2017-08-12T19:19:18.669Z,5.80
2017-08-12T19:21:52.389Z,6.57
2017-08-12T19:24:26.794Z,6.33
2017-08-12T19:27:00.508Z,6.80
2017-08-12T19:29:34.003Z,7.43
2017-08-12T19:32:07.519Z,5.93
2017-08-12T19:34:41.211Z,6.77
2017-08-12T19:37:14.912Z,6.80
2017-08-12T19:39:49.124Z,6.50
2017-08-12T19:42:22.729Z,6.90
2017-08-12T19:44:57.034Z,7.07
2017-08-12T19:47:30.547Z,6.07
2017-08-12T19:50:04.464Z,6.90
2017-08-12T19:52:38.142Z,6.23
2017-08-12T19:55:11.745Z,6.97
2017-08-12T19:57:45.250Z,5.30
2017-08-12T20:00:18.755Z,6.67
2017-08-12T20:02:52.400Z,6.03
2017-08-12T20:05:26.006Z,6.03
2017-08-12T20:08:00.479Z,5.30
2017-08-12T20:10:34.054Z,5.87
2017-08-12T20:13:07.626Z,7.10
2017-08-12T20:15:41.211Z,5.73
2017-08-12T20:18:15.686Z,5.60
2017-08-12T20:20:49.306Z,6.47
2017-08-12T20:23:23.093Z,5.90
2017-08-12T20:25:56.801Z,5.77
2017-08-12T20:28:30.493Z,5.97
2017-08-12T20:31:05.049Z,6.17
2017-08-12T20:33:38.613Z,5.87
2017-08-12T20:36:12.334Z,5.57
2017-08-12T20:38:45.979Z,6.13
2017-08-12T20:41:20.078Z,6.03
2017-08-12T20:43:53.937Z,5.70
2017-08-12T20:46:28.278Z,5.73
2017-08-12T20:49:01.872Z,5.50
2017-08-12T20:51:36.226Z,5.80
2017-08-12T20:54:09.994Z,4.77
2017-08-12T20:56:43.894Z,4.77
2017-08-12T20:59:17.470Z,5.40
2017-08-12T21:01:52.015Z,5.30
2017-08-12T21:04:25.717Z,5.20
2017-08-12T21:06:59.421Z,5.30
2017-08-12T21:09:33.125Z,5.70
2017-08-12T21:12:06.817Z,5.50
2017-08-12T21:14:41.034Z,5.43
2017-08-12T21:17:14.722Z,4.60
2017-08-12T21:19:48.457Z,5.20
2017-08-12T21:22:22.150Z,5.57
2017-08-12T21:24:55.962Z,4.73
2017-08-12T21:27:29.629Z,4.67
2017-08-12T21:30:03.385Z,4.87
2017-08-12T21:32:37.062Z,5.10
2017-08-12T21:35:10.554Z,3.70
2017-08-12T21:37:44.141Z,4.50
2017-08-12T21:40:18.163Z,5.17
2017-08-12T21:42:51.763Z,4.90
2017-08-12T21:45:26.300Z,4.17
2017-08-12T21:47:59.899Z,4.10
2017-08-12T21:50:33.550Z,4.40
2017-08-12T21:53:07.198Z,4.47
2017-08-12T21:55:41.412Z,4.67
2017-08-12T21:58:15.122Z,5.10
2017-08-12T22:00:48.824Z,4.63
2017-08-12T22:03:23.346Z,5.10
2017-08-12T22:05:57.157Z,4.60
2017-08-12T22:08:30.849Z,4.40
2017-08-12T22:11:04.552Z,4.50
2017-08-12T22:13:38.949Z,3.60
2017-08-12T22:16:12.666Z,4.30
2017-08-12T22:18:46.265Z,4.37
2017-08-12T22:21:20.707Z,5.07
2017-08-12T22:23:54.598Z,5.03
2017-08-12T22:26:29.037Z,4.53
2017-08-12T22:29:02.732Z,4.73
2017-08-12T22:31:36.218Z,4.63
2017-08-12T22:34:10.538Z,4.50
2017-08-12T22:36:44.137Z,4.90
2017-08-12T22:39:17.846Z,4.73
2017-08-12T22:41:51.456Z,5.07
2017-08-12T22:44:25.507Z,4.50
2017-08-12T22:46:59.145Z,4.60
2017-08-12T22:49:32.966Z,5.33
2017-08-12T22:52:06.771Z,4.70
2017-08-12T22:54:40.469Z,5.27
2017-08-12T22:57:14.175Z,5.80
2017-08-12T22:59:48.600Z,4.57
2017-08-12T23:02:22.225Z,5.73
2017-08-12T23:04:55.893Z,4.60
2017-08-12T23:07:29.456Z,5.30
2017-08-12T23:10:04.127Z,4.97
2017-08-12T23:12:37.818Z,4.40
2017-08-12T23:15:11.534Z,4.53
2017-08-12T23:17:45.330Z,5.03
2017-08-12T23:20:18.833Z,4.60
2017-08-12T23:22:52.370Z,4.60
2017-08-12T23:25:26.763Z,5.30
2017-08-12T23:28:00.328Z,4.77
2017-08-12T23:30:34.017Z,4.40
2017-08-12T23:33:08.472Z,8.00
2017-08-12T23:35:42.899Z,13.10
2017-08-12T23:38:16.353Z,7.90
2017-08-12T23:40:50.000Z,12.40
2017-08-12T23:43:23.682Z,7.07
2017-08-12T23:45:57.390Z,5.60
2017-08-12T23:48:31.708Z,5.57
2017-08-12T23:51:05.620Z,4.80
2017-08-12T23:53:39.227Z,5.83
2017-08-12T23:56:13.025Z,5.40
2017-08-12T23:58:46.593Z,5.30
